createdAt,value
2022-12-12T00:00:09.865Z,10.97
2022-12-12T00:02:41.694Z,8.70
2022-12-12T00:08:00.623Z,10.83
2022-12-12T00:10:29.663Z,13.10
2022-12-12T00:12:58.890Z,11.47
2022-12-12T00:15:35.443Z,12.33
2022-12-12T00:18:12.878Z,12.73
2022-12-12T00:20:41.004Z,10.30
2022-12-12T00:23:17.961Z,9.87
2022-12-12T00:25:58.226Z,11.77
2022-12-12T00:28:27.684Z,10.13
2022-12-12T00:30:56.448Z,11.97
2022-12-12T00:33:24.846Z,10.87
2022-12-12T00:35:56.441Z,11.03
2022-12-12T00:38:24.599Z,11.37
2022-12-12T00:40:58.898Z,10.30
2022-12-12T00:43:28.479Z,8.83
2022-12-12T00:45:58.638Z,10.70
2022-12-12T00:48:28.924Z,9.30
2022-12-12T00:51:07.541Z,10.80
2022-12-12T00:53:38.704Z,9.73
2022-12-12T00:56:07.284Z,11.93
2022-12-12T00:58:36.091Z,9.47
2022-12-12T01:01:18.370Z,8.90
2022-12-12T01:03:48.974Z,9.73
2022-12-12T01:06:39.628Z,9.43
2022-12-12T01:09:09.308Z,6.73
2022-12-12T01:11:37.684Z,7.50
2022-12-12T01:14:07.823Z,8.07
2022-12-12T01:16:39.448Z,7.57
2022-12-12T01:19:08.049Z,8.97
2022-12-12T01:21:40.286Z,7.77
2022-12-12T01:24:08.586Z,9.50
2022-12-12T01:26:38.689Z,8.03
2022-12-12T01:29:08.613Z,10.07
2022-12-12T01:31:38.324Z,8.30
2022-12-12T01:34:07.508Z,7.53
2022-12-12T01:36:37.893Z,10.67
2022-12-12T01:39:06.373Z,9.30
2022-12-12T01:41:35.050Z,9.57
2022-12-12T01:44:28.583Z,8.73
2022-12-12T01:46:57.305Z,9.97
2022-12-12T01:49:27.848Z,8.00
2022-12-12T01:52:18.245Z,10.70
2022-12-12T01:54:51.023Z,10.87
2022-12-12T01:57:30.973Z,7.77
2022-12-12T02:00:02.373Z,9.57
2022-12-12T02:02:39.370Z,9.00
2022-12-12T02:05:42.127Z,13.63
2022-12-12T02:08:14.461Z,8.00
2022-12-12T02:10:46.733Z,14.27
2022-12-12T02:13:19.572Z,14.60
2022-12-12T02:15:55.684Z,13.23
2022-12-12T02:18:45.178Z,12.33
2022-12-12T02:21:39.209Z,12.90
2022-12-12T02:24:51.603Z,10.60
2022-12-12T02:28:08.208Z,11.33
2022-12-12T02:30:48.902Z,13.17
2022-12-12T02:33:38.354Z,11.13
2022-12-12T02:36:20.214Z,9.93
2022-12-12T02:39:15.548Z,12.57
2022-12-12T02:42:10.653Z,12.77
2022-12-12T02:48:18.919Z,11.93
2022-12-12T02:50:53.783Z,13.67
2022-12-12T02:53:24.229Z,10.30
2022-12-12T02:56:31.567Z,11.57
2022-12-12T02:59:10.370Z,14.17
2022-12-12T03:02:15.223Z,10.53
2022-12-12T03:05:37.563Z,10.40
2022-12-12T03:08:42.776Z,11.30
2022-12-12T03:11:51.542Z,11.10
2022-12-12T03:15:15.600Z,11.77
2022-12-12T03:18:20.324Z,10.83
2022-12-12T03:21:34.005Z,10.17
2022-12-12T03:24:28.074Z,11.13
2022-12-12T03:27:24.287Z,18.70
2022-12-12T03:30:17.123Z,15.70
2022-12-12T03:32:55.348Z,17.50
2022-12-12T03:35:49.394Z,11.73
2022-12-12T03:38:39.698Z,15.60
2022-12-12T03:41:30.763Z,11.73
2022-12-12T03:44:36.825Z,14.43
2022-12-12T03:47:35.064Z,12.83
2022-12-12T03:50:24.012Z,11.40
2022-12-12T03:53:21.699Z,14.07
2022-12-12T03:56:25.532Z,10.87
2022-12-12T03:59:07.143Z,10.93
2022-12-12T04:01:48.390Z,12.53
2022-12-12T04:04:39.088Z,14.13
2022-12-12T04:07:33.389Z,15.17
2022-12-12T04:10:20.348Z,12.53
2022-12-12T04:13:40.093Z,16.07
2022-12-12T04:16:36.393Z,16.47
2022-12-12T04:19:52.529Z,13.90
2022-12-12T04:23:15.723Z,16.30
2022-12-12T04:26:40.887Z,15.43
2022-12-12T04:30:05.826Z,18.90
2022-12-12T04:33:14.075Z,20.23
2022-12-12T04:35:50.217Z,22.83
2022-12-12T04:38:22.010Z,18.33
2022-12-12T04:41:10.163Z,25.47
2022-12-12T04:43:43.471Z,20.00
2022-12-12T04:46:19.090Z,22.30
2022-12-12T04:49:08.503Z,17.37
2022-12-12T04:52:19.102Z,19.47
2022-12-12T04:55:03.666Z,20.03
2022-12-12T04:58:06.738Z,19.43
2022-12-12T05:01:33.248Z,18.77
2022-12-12T05:04:05.797Z,18.73
2022-12-12T05:06:50.175Z,18.47
2022-12-12T05:09:21.923Z,15.67
2022-12-12T05:11:51.681Z,16.93
2022-12-12T05:14:29.334Z,16.67
2022-12-12T05:17:04.874Z,16.53
2022-12-12T05:19:42.028Z,15.77
2022-12-12T05:22:11.223Z,14.63
2022-12-12T05:24:41.589Z,15.50
2022-12-12T05:27:13.022Z,17.73
2022-12-12T05:29:41.518Z,14.73
2022-12-12T05:32:09.522Z,16.00
2022-12-12T05:34:39.608Z,31.67
2022-12-12T05:37:08.404Z,32.13
2022-12-12T05:39:44.518Z,32.23
2022-12-12T05:42:11.523Z,28.60
2022-12-12T05:44:40.442Z,22.67
2022-12-12T05:47:07.407Z,20.87
2022-12-12T05:49:35.753Z,19.30
2022-12-12T05:52:04.472Z,17.77
2022-12-12T05:54:34.848Z,19.70
2022-12-12T05:57:05.312Z,17.43
2022-12-12T05:59:34.774Z,18.30
2022-12-12T06:02:05.349Z,15.13
2022-12-12T06:04:35.092Z,14.43
2022-12-12T06:07:06.068Z,14.10
2022-12-12T06:09:36.914Z,14.00
2022-12-12T06:12:05.368Z,12.50
2022-12-12T06:14:36.028Z,12.93
2022-12-12T06:17:04.372Z,15.50
2022-12-12T06:19:33.017Z,13.43
2022-12-12T06:22:01.383Z,17.07
2022-12-12T06:24:28.524Z,13.97
2022-12-12T06:26:57.011Z,14.90
2022-12-12T06:29:27.373Z,13.67
2022-12-12T06:31:55.763Z,12.97
2022-12-12T06:34:22.743Z,13.07
2022-12-12T06:36:51.324Z,14.57
2022-12-12T06:39:20.782Z,11.93
2022-12-12T06:41:57.813Z,14.03
2022-12-12T06:44:26.487Z,10.57
2022-12-12T06:46:56.013Z,10.53
2022-12-12T06:49:24.313Z,12.40
2022-12-12T06:51:52.838Z,13.57
2022-12-12T06:54:21.473Z,16.27
2022-12-12T06:56:51.444Z,11.73
2022-12-12T06:59:21.187Z,13.73
2022-12-12T07:01:51.590Z,9.37
2022-12-12T07:04:29.693Z,10.37
2022-12-12T07:07:01.700Z,12.73
2022-12-12T07:09:30.180Z,14.43
2022-12-12T07:12:06.362Z,12.97
2022-12-12T07:14:38.073Z,16.00
2022-12-12T07:17:26.258Z,13.70
2022-12-12T07:20:02.938Z,13.90
2022-12-12T07:22:31.213Z,33.77
2022-12-12T07:25:01.891Z,49.27
2022-12-12T07:27:32.232Z,34.63
2022-12-12T07:30:03.248Z,16.07
2022-12-12T07:32:32.830Z,13.63
2022-12-12T07:35:08.997Z,16.40
2022-12-12T07:37:37.048Z,12.77
2022-12-12T07:40:06.231Z,11.73
2022-12-12T07:42:36.716Z,17.23
2022-12-12T07:45:08.183Z,12.87
2022-12-12T07:47:41.498Z,16.57
2022-12-12T07:50:12.621Z,17.07
2022-12-12T07:52:49.781Z,13.63
2022-12-12T07:55:18.956Z,11.07
2022-12-12T07:57:49.653Z,9.37
2022-12-12T08:00:21.978Z,9.27
2022-12-12T08:02:53.068Z,10.83
2022-12-12T08:05:22.782Z,10.50
2022-12-12T08:07:51.912Z,14.63
2022-12-12T08:10:23.583Z,14.03
2022-12-12T08:12:53.208Z,10.43
2022-12-12T08:15:21.823Z,12.37
2022-12-12T08:17:50.649Z,12.97
2022-12-12T08:20:22.067Z,11.37
2022-12-12T08:22:50.372Z,12.00
2022-12-12T08:25:27.290Z,11.83
2022-12-12T08:28:03.983Z,11.60
2022-12-12T08:30:41.308Z,13.37
2022-12-12T08:33:08.924Z,10.23
2022-12-12T08:35:38.492Z,9.50
2022-12-12T08:38:06.853Z,10.70
2022-12-12T08:40:38.178Z,9.37
2022-12-12T08:43:06.549Z,10.63
2022-12-12T08:45:34.984Z,7.80
2022-12-12T08:48:04.808Z,8.17
2022-12-12T08:50:35.948Z,10.00
2022-12-12T08:53:04.198Z,9.13
2022-12-12T08:55:32.640Z,6.27
2022-12-12T08:58:00.848Z,7.67
2022-12-12T09:00:29.113Z,8.50
2022-12-12T09:03:06.212Z,6.80
2022-12-12T09:05:36.593Z,7.17
2022-12-12T09:08:04.786Z,7.13
2022-12-12T09:10:33.583Z,6.70
2022-12-12T09:13:01.969Z,7.43
2022-12-12T09:15:30.548Z,8.37
2022-12-12T09:18:06.128Z,7.60
2022-12-12T09:20:36.377Z,8.57
2022-12-12T09:23:04.812Z,11.37
2022-12-12T09:25:38.858Z,48.97
2022-12-12T09:28:18.264Z,8.17
2022-12-12T09:30:48.595Z,9.13
2022-12-12T09:33:18.653Z,8.90
2022-12-12T09:35:46.955Z,6.97
2022-12-12T09:38:15.502Z,6.27
2022-12-12T09:41:04.498Z,7.90
2022-12-12T09:44:01.727Z,8.20
2022-12-12T09:46:57.434Z,6.77
2022-12-12T09:49:47.084Z,7.63
2022-12-12T09:52:33.983Z,7.20
2022-12-12T09:55:25.909Z,6.70
2022-12-12T09:58:42.168Z,8.87
2022-12-12T10:01:27.848Z,7.47
2022-12-12T10:04:33.421Z,8.10
2022-12-12T10:07:43.853Z,7.80
2022-12-12T10:10:30.033Z,7.20
2022-12-12T10:12:59.984Z,7.40
2022-12-12T10:15:42.133Z,7.50
2022-12-12T10:18:32.734Z,6.10
2022-12-12T10:21:08.258Z,5.90
2022-12-12T10:24:12.354Z,8.47
2022-12-12T10:26:44.071Z,6.50
2022-12-12T10:29:41.565Z,6.13
2022-12-12T10:32:30.288Z,7.37
2022-12-12T10:35:34.289Z,5.93
2022-12-12T10:38:50.073Z,7.70
2022-12-12T10:41:58.404Z,7.17
2022-12-12T10:45:05.264Z,7.57
2022-12-12T10:47:38.433Z,6.90
2022-12-12T10:50:28.683Z,7.90
2022-12-12T10:53:03.852Z,6.57
2022-12-12T10:56:02.798Z,8.50
2022-12-12T10:58:42.759Z,6.83
2022-12-12T11:04:21.509Z,8.20
2022-12-12T11:07:03.184Z,6.90
2022-12-12T11:09:39.575Z,7.60
2022-12-12T11:12:17.065Z,3.90
2022-12-12T11:14:54.609Z,5.77
2022-12-12T11:17:31.790Z,5.20
2022-12-12T11:20:06.429Z,4.90
2022-12-12T11:22:38.372Z,6.53
2022-12-12T11:25:07.248Z,5.27
2022-12-12T11:27:46.123Z,5.23
2022-12-12T11:30:56.807Z,4.97
2022-12-12T11:33:49.326Z,4.90
2022-12-12T11:37:04.313Z,4.30
2022-12-12T11:39:42.553Z,5.43
2022-12-12T11:42:19.333Z,4.43
2022-12-12T11:45:14.972Z,4.73
2022-12-12T11:47:53.833Z,4.00
2022-12-12T11:50:30.188Z,4.77
2022-12-12T11:53:01.737Z,3.20
2022-12-12T11:55:59.159Z,4.90
2022-12-12T11:58:52.781Z,4.33
2022-12-12T12:01:57.075Z,2.93
2022-12-12T12:08:11.495Z,6.53
2022-12-12T12:11:26.342Z,5.97
2022-12-12T12:14:33.116Z,4.83
2022-12-12T12:17:40.945Z,4.33
2022-12-12T12:20:46.933Z,3.73
2022-12-12T12:23:55.813Z,3.10
2022-12-12T12:27:03.791Z,3.00
2022-12-12T12:30:24.775Z,3.70
2022-12-12T12:33:40.753Z,3.70
2022-12-12T12:37:03.908Z,3.17
2022-12-12T12:40:02.194Z,4.03
2022-12-12T12:42:56.153Z,3.20
2022-12-12T12:45:42.553Z,4.37
2022-12-12T12:48:33.653Z,3.10
2022-12-12T12:51:45.460Z,2.50
2022-12-12T12:57:56.812Z,3.83
2022-12-12T13:00:39.542Z,3.83
2022-12-12T13:03:31.230Z,4.40
2022-12-12T13:06:08.765Z,3.03
2022-12-12T13:09:07.298Z,5.83
2022-12-12T13:11:43.768Z,3.20
2022-12-12T13:14:42.993Z,3.93
2022-12-12T13:17:37.143Z,5.23
2022-12-12T13:20:06.447Z,3.10
2022-12-12T13:23:00.910Z,4.00
2022-12-12T13:26:08.028Z,3.43
2022-12-12T13:28:51.196Z,3.60
2022-12-12T13:31:55.902Z,2.97
2022-12-12T13:34:25.688Z,6.00
2022-12-12T13:36:55.533Z,3.33
2022-12-12T13:39:33.773Z,3.13
2022-12-12T13:42:16.788Z,2.10
2022-12-12T13:44:48.984Z,2.20
2022-12-12T13:47:29.002Z,2.43
2022-12-12T13:50:23.733Z,3.70
2022-12-12T13:53:11.677Z,2.47
2022-12-12T13:55:40.297Z,2.30
2022-12-12T13:58:20.102Z,2.30
2022-12-12T14:00:56.338Z,2.50
2022-12-12T14:03:33.961Z,3.50
2022-12-12T14:06:14.572Z,2.30
2022-12-12T14:08:50.258Z,3.83
2022-12-12T14:11:35.654Z,2.50
2022-12-12T14:14:23.593Z,2.37
2022-12-12T14:16:57.188Z,2.27
2022-12-12T14:19:38.227Z,2.20
2022-12-12T14:22:27.542Z,2.60
2022-12-12T14:25:12.168Z,3.30
2022-12-12T14:27:57.728Z,2.33
2022-12-12T14:30:56.277Z,3.37
2022-12-12T14:33:43.878Z,2.40
2022-12-12T14:36:49.835Z,2.30
2022-12-12T14:39:59.073Z,2.53
2022-12-12T14:43:20.356Z,2.20
2022-12-12T14:46:00.622Z,2.47
2022-12-12T14:48:38.492Z,3.57
2022-12-12T14:51:35.749Z,2.37
2022-12-12T14:54:04.710Z,2.70
2022-12-12T14:56:53.668Z,2.93
2022-12-12T14:59:41.458Z,2.50
2022-12-12T15:02:31.376Z,3.90
2022-12-12T15:07:59.878Z,2.77
2022-12-12T15:10:38.713Z,2.87
2022-12-12T15:13:20.094Z,2.87
2022-12-12T15:15:59.722Z,3.17
2022-12-12T15:18:28.724Z,11.83
2022-12-12T15:21:05.220Z,10.63
2022-12-12T15:23:37.989Z,9.33
2022-12-12T15:26:15.378Z,5.07
2022-12-12T15:28:48.197Z,3.03
2022-12-12T15:31:23.184Z,3.20
2022-12-12T15:33:51.184Z,5.50
2022-12-12T15:36:39.240Z,5.87
2022-12-12T15:39:18.524Z,6.67
2022-12-12T15:41:50.289Z,5.00
2022-12-12T15:44:28.454Z,4.63
2022-12-12T15:46:57.082Z,5.23
2022-12-12T15:49:42.253Z,4.27
2022-12-12T15:52:32.833Z,3.67
2022-12-12T15:55:05.162Z,3.37
2022-12-12T15:57:50.376Z,3.33
2022-12-12T16:00:35.934Z,4.23
2022-12-12T16:03:28.252Z,3.00
2022-12-12T16:06:15.949Z,4.33
2022-12-12T16:09:04.035Z,4.63
2022-12-12T16:12:01.416Z,4.30
2022-12-12T16:14:46.898Z,4.10
2022-12-12T16:17:41.210Z,3.37
2022-12-12T16:20:17.216Z,5.27
2022-12-12T16:22:52.044Z,4.53
2022-12-12T16:25:29.684Z,3.40
2022-12-12T16:28:29.247Z,3.40
2022-12-12T16:31:08.580Z,3.83
2022-12-12T16:33:40.221Z,3.17
2022-12-12T16:36:25.069Z,3.93
2022-12-12T16:38:53.246Z,3.10
2022-12-12T16:41:21.033Z,5.17
2022-12-12T16:43:50.544Z,3.97
2022-12-12T16:46:26.743Z,3.37
2022-12-12T16:48:56.494Z,3.00
2022-12-12T16:51:36.799Z,3.63
2022-12-12T16:54:05.548Z,3.63
2022-12-12T16:56:34.949Z,3.30
2022-12-12T16:59:03.574Z,4.07
2022-12-12T17:01:37.191Z,3.23
2022-12-12T17:04:17.479Z,3.20
2022-12-12T17:06:47.983Z,3.87
2022-12-12T17:09:23.290Z,3.67
2022-12-12T17:11:56.963Z,4.30
2022-12-12T17:14:29.572Z,9.10
2022-12-12T17:17:00.255Z,6.47
2022-12-12T17:19:30.798Z,5.40
2022-12-12T17:21:59.343Z,5.60
2022-12-12T17:24:35.308Z,5.83
2022-12-12T17:27:12.753Z,5.53
2022-12-12T17:29:42.272Z,5.03
2022-12-12T17:32:11.048Z,4.50
2022-12-12T17:34:39.943Z,4.30
2022-12-12T17:37:10.309Z,4.27
2022-12-12T17:39:38.508Z,4.93
2022-12-12T17:42:09.674Z,4.50
2022-12-12T17:44:39.228Z,4.20
2022-12-12T17:47:16.668Z,5.00
2022-12-12T17:49:46.934Z,4.70
2022-12-12T17:52:17.818Z,4.00
2022-12-12T17:55:54.087Z,3.93
2022-12-12T17:57:44.027Z,4.23
2022-12-12T18:00:13.152Z,4.83
2022-12-12T18:02:42.109Z,4.70
2022-12-12T18:05:10.887Z,4.70
2022-12-12T18:07:39.987Z,5.33
2022-12-12T18:10:08.542Z,4.50
2022-12-12T18:12:40.293Z,5.17
2022-12-12T18:15:11.387Z,5.00
2022-12-12T18:17:41.994Z,5.53
2022-12-12T18:20:12.571Z,6.63
2022-12-12T18:22:42.275Z,8.43
2022-12-12T18:25:30.469Z,9.97
2022-12-12T18:28:00.382Z,7.60
2022-12-12T18:30:28.709Z,7.53
2022-12-12T18:33:02.766Z,8.30
2022-12-12T18:35:33.053Z,8.23
2022-12-12T18:38:10.794Z,8.57
2022-12-12T18:40:44.083Z,8.37
2022-12-12T18:43:12.782Z,9.30
2022-12-12T18:45:42.363Z,9.10
2022-12-12T18:48:13.529Z,7.07
2022-12-12T18:50:43.349Z,7.47
2022-12-12T18:53:19.783Z,6.47
2022-12-12T18:55:48.282Z,6.43
2022-12-12T18:58:16.732Z,7.53
2022-12-12T19:00:44.888Z,7.73
2022-12-12T19:03:23.584Z,8.37
2022-12-12T19:05:53.548Z,7.00
2022-12-12T19:08:23.468Z,6.23
2022-12-12T19:11:00.153Z,6.20
2022-12-12T19:13:29.062Z,6.97
2022-12-12T19:16:12.208Z,7.20
2022-12-12T19:18:41.897Z,6.17
2022-12-12T19:21:29.367Z,21.27
2022-12-12T19:24:02.878Z,13.90
2022-12-12T19:26:32.012Z,15.00
2022-12-12T19:29:05.168Z,13.40
2022-12-12T19:31:37.340Z,13.43
2022-12-12T19:34:08.458Z,12.53
2022-12-12T19:36:37.247Z,14.43
2022-12-12T19:39:14.068Z,14.10
2022-12-12T19:42:04.477Z,8.67
2022-12-12T19:44:43.540Z,8.23
2022-12-12T19:47:14.733Z,7.53
2022-12-12T19:49:50.594Z,5.93
2022-12-12T19:52:22.313Z,7.13
2022-12-12T19:54:53.037Z,8.97
2022-12-12T19:57:29.203Z,9.90
2022-12-12T19:59:59.527Z,7.60
2022-12-12T20:02:28.964Z,7.20
2022-12-12T20:05:03.044Z,7.27
2022-12-12T20:07:33.972Z,7.63
2022-12-12T20:10:02.728Z,7.32
2022-12-12T20:12:33.170Z,8.63
2022-12-12T20:15:01.665Z,7.27
2022-12-12T20:17:32.856Z,9.07
2022-12-12T20:20:09.498Z,9.17
2022-12-12T20:22:38.447Z,14.33
2022-12-12T20:25:08.074Z,15.27
2022-12-12T20:27:39.038Z,11.47
2022-12-12T20:30:09.300Z,10.00
2022-12-12T20:32:38.209Z,11.70
2022-12-12T20:35:05.783Z,9.40
2022-12-12T20:37:35.247Z,11.37
2022-12-12T20:40:05.132Z,12.30
2022-12-12T20:42:42.415Z,11.10
2022-12-12T20:45:19.428Z,10.03
2022-12-12T20:48:01.713Z,8.63
2022-12-12T20:50:34.332Z,9.50
2022-12-12T20:53:02.698Z,9.17
2022-12-12T20:55:31.028Z,9.67
2022-12-12T20:58:02.074Z,8.17
2022-12-12T21:00:34.235Z,13.40
2022-12-12T21:03:11.891Z,13.73
2022-12-12T21:05:40.714Z,12.20
2022-12-12T21:08:09.614Z,12.43
2022-12-12T21:10:40.773Z,12.90
2022-12-12T21:13:17.269Z,10.60
2022-12-12T21:15:45.474Z,13.07
2022-12-12T21:18:13.992Z,10.53
2022-12-12T21:20:45.008Z,11.43
2022-12-12T21:23:15.353Z,12.63
2022-12-12T21:25:46.593Z,11.23
2022-12-12T21:28:17.388Z,15.37
2022-12-12T21:30:47.652Z,15.50
2022-12-12T21:33:17.674Z,11.37
2022-12-12T21:35:45.949Z,9.40
2022-12-12T21:38:17.596Z,8.77
2022-12-12T21:40:57.243Z,9.43
2022-12-12T21:43:25.954Z,11.37
2022-12-12T21:45:55.174Z,11.73
2022-12-12T21:48:25.842Z,9.37
2022-12-12T21:50:55.494Z,9.20
2022-12-12T21:53:37.716Z,13.53
2022-12-12T21:56:19.833Z,10.77
2022-12-12T21:58:57.274Z,9.90
2022-12-12T22:01:28.436Z,10.03
2022-12-12T22:04:00.193Z,10.10
2022-12-12T22:06:49.913Z,9.37
2022-12-12T22:09:18.668Z,15.93
2022-12-12T22:11:49.323Z,10.57
2022-12-12T22:14:29.342Z,14.83
2022-12-12T22:17:05.858Z,12.97
2022-12-12T22:19:42.792Z,11.77
2022-12-12T22:22:11.078Z,12.40
2022-12-12T22:24:39.370Z,9.67
2022-12-12T22:27:07.752Z,9.30
2022-12-12T22:29:39.414Z,8.43
2022-12-12T22:32:16.729Z,10.30
2022-12-12T22:34:45.578Z,9.43
2022-12-12T22:37:15.952Z,10.83
2022-12-12T22:39:46.793Z,10.23
2022-12-12T22:42:15.733Z,8.33
2022-12-12T22:44:46.479Z,9.27
2022-12-12T22:47:23.432Z,7.37
2022-12-12T22:49:50.955Z,9.43
2022-12-12T22:52:20.548Z,7.60
2022-12-12T22:54:49.154Z,9.10
2022-12-12T22:57:19.329Z,8.83
2022-12-12T22:59:48.349Z,7.13
2022-12-12T23:02:26.949Z,10.00
2022-12-12T23:05:02.930Z,9.50
2022-12-12T23:07:41.990Z,9.23
2022-12-12T23:10:14.088Z,10.37
2022-12-12T23:12:51.508Z,7.97
2022-12-12T23:15:19.535Z,8.77
2022-12-12T23:17:48.227Z,8.60
2022-12-12T23:20:18.353Z,6.30
2022-12-12T23:22:48.100Z,8.37
2022-12-12T23:25:17.857Z,9.83
2022-12-12T23:27:46.596Z,7.93
2022-12-12T23:30:17.629Z,7.20
2022-12-12T23:32:45.883Z,6.83
2022-12-12T23:35:16.654Z,6.90
2022-12-12T23:37:45.544Z,10.60
2022-12-12T23:40:13.693Z,11.20
2022-12-12T23:42:41.775Z,11.07
2022-12-12T23:45:12.102Z,6.27
2022-12-12T23:47:42.899Z,5.60
2022-12-12T23:50:12.962Z,7.23
2022-12-12T23:52:41.232Z,6.50
2022-12-12T23:55:10.219Z,7.93
2022-12-12T23:57:38.448Z,6.40
